sensor_id;sensor_type;location;lat;lon;timestamp;pressure;altitude;pressure_sealevel;temperature;humidity
18985;BME280;9626;52.552;13.436;2023-06-24T00:01:49;101644.19;;;16.92;100.00
18985;BME280;9626;52.552;13.436;2023-06-24T00:04:15;101644.94;;;16.96;100.00
18985;BME280;9626;52.552;13.436;2023-06-24T00:06:42;101650.22;;;16.99;100.00
18985;BME280;9626;52.552;13.436;2023-06-24T00:09:08;101658.25;;;16.99;100.00
18985;BME280;9626;52.552;13.436;2023-06-24T00:11:35;101662.59;;;17.03;100.00
18985;BME280;9626;52.552;13.436;2023-06-24T00:14:01;101664.34;;;17.02;100.00
18985;BME280;9626;52.552;13.436;2023-06-24T00:16:27;101668.00;;;17.00;100.00
18985;BME280;9626;52.552;13.436;2023-06-24T00:18:56;101666.34;;;16.96;100.00
18985;BME280;9626;52.552;13.436;2023-06-24T00:21:27;101661.09;;;16.93;100.00
18985;BME280;9626;52.552;13.436;2023-06-24T00:23:58;101673.56;;;16.94;100.00
18985;BME280;9626;52.552;13.436;2023-06-24T00:26:25;101670.94;;;16.92;100.00
18985;BME280;9626;52.552;13.436;2023-06-24T00:28:51;101676.31;;;16.90;100.00
18985;BME280;9626;52.552;13.436;2023-06-24T00:31:18;101674.59;;;16.88;100.00
18985;BME280;9626;52.552;13.436;2023-06-24T00:33:44;101674.66;;;16.85;100.00
18985;BME280;9626;52.552;13.436;2023-06-24T00:36:10;101679.03;;;16.87;100.00
18985;BME280;9626;52.552;13.436;2023-06-24T00:38:38;101680.00;;;16.85;100.00
18985;BME280;9626;52.552;13.436;2023-06-24T00:41:05;101672.72;;;16.92;100.00
18985;BME280;9626;52.552;13.436;2023-06-24T00:43:31;101684.59;;;16.81;100.00
18985;BME280;9626;52.552;13.436;2023-06-24T00:45:57;101677.59;;;16.77;100.00
18985;BME280;9626;52.552;13.436;2023-06-24T00:48:24;101672.25;;;16.77;100.00
18985;BME280;9626;52.552;13.436;2023-06-24T00:50:50;101675.94;;;16.73;100.00
18985;BME280;9626;52.552;13.436;2023-06-24T00:53:17;101674.28;;;16.69;100.00
18985;BME280;9626;52.552;13.436;2023-06-24T00:55:44;101676.94;;;16.69;100.00
18985;BME280;9626;52.552;13.436;2023-06-24T00:58:13;101686.84;;;16.65;100.00
18985;BME280;9626;52.552;13.436;2023-06-24T01:00:42;101695.78;;;16.64;100.00
18985;BME280;9626;52.552;13.436;2023-06-24T01:03:12;101691.34;;;16.63;100.00
18985;BME280;9626;52.552;13.436;2023-06-24T01:05:43;101690.31;;;16.67;100.00
18985;BME280;9626;52.552;13.436;2023-06-24T01:08:10;101690.38;;;16.66;100.00
18985;BME280;9626;52.552;13.436;2023-06-24T01:10:42;101683.31;;;16.63;100.00
18985;BME280;9626;52.552;13.436;2023-06-24T01:13:08;101683.38;;;16.62;100.00
18985;BME280;9626;52.552;13.436;2023-06-24T01:15:35;101684.34;;;16.59;100.00
18985;BME280;9626;52.552;13.436;2023-06-24T01:18:11;101674.63;;;16.56;100.00
18985;BME280;9626;52.552;13.436;2023-06-24T01:20:47;101678.22;;;16.55;100.00
18985;BME280;9626;52.552;13.436;2023-06-24T01:37:37;101661.03;;;16.33;100.00
18985;BME280;9626;52.552;13.436;2023-06-24T01:42:44;101659.38;;;16.29;100.00
18985;BME280;9626;52.552;13.436;2023-06-24T01:45:19;101661.22;;;16.27;100.00
18985;BME280;9626;52.552;13.436;2023-06-24T01:47:48;101659.47;;;16.26;100.00
18985;BME280;9626;52.552;13.436;2023-06-24T01:50:19;101655.13;;;16.21;100.00
18985;BME280;9626;52.552;13.436;2023-06-24T01:52:48;101654.13;;;16.26;100.00
18985;BME280;9626;52.552;13.436;2023-06-24T01:55:18;101657.69;;;16.25;100.00
18985;BME280;9626;52.552;13.436;2023-06-24T01:57:46;101661.25;;;16.25;100.00
18985;BME280;9626;52.552;13.436;2023-06-24T02:00:14;101654.22;;;16.21;100.00
18985;BME280;9626;52.552;13.436;2023-06-24T02:02:41;101658.81;;;16.17;100.00
18985;BME280;9626;52.552;13.436;2023-06-24T02:05:09;101647.19;;;16.18;100.00
18985;BME280;9626;52.552;13.436;2023-06-24T02:07:36;101647.31;;;16.14;100.00
18985;BME280;9626;52.552;13.436;2023-06-24T02:10:03;101649.16;;;16.12;100.00
18985;BME280;9626;52.552;13.436;2023-06-24T02:12:30;101655.41;;;16.11;100.00
18985;BME280;9626;52.552;13.436;2023-06-24T02:14:57;101656.38;;;16.08;100.00
18985;BME280;9626;52.552;13.436;2023-06-24T02:17:25;101654.72;;;16.04;100.00
18985;BME280;9626;52.552;13.436;2023-06-24T02:19:52;101649.53;;;15.98;100.00
18985;BME280;9626;52.552;13.436;2023-06-24T02:22:20;101651.22;;;16.00;100.00
18985;BME280;9626;52.552;13.436;2023-06-24T02:24:49;101643.31;;;15.97;100.00
18985;BME280;9626;52.552;13.436;2023-06-24T02:27:30;101654.19;;;15.91;100.00
18985;BME280;9626;52.552;13.436;2023-06-24T02:29:58;101653.38;;;15.87;100.00
18985;BME280;9626;52.552;13.436;2023-06-24T02:32:25;101657.94;;;15.82;100.00
18985;BME280;9626;52.552;13.436;2023-06-24T02:34:51;101654.31;;;15.85;100.00
18985;BME280;9626;52.552;13.436;2023-06-24T02:37:17;101644.66;;;15.79;100.00
18985;BME280;9626;52.552;13.436;2023-06-24T02:39:43;101654.22;;;15.88;100.00
18985;BME280;9626;52.552;13.436;2023-06-24T02:42:10;101653.31;;;15.89;100.00
18985;BME280;9626;52.552;13.436;2023-06-24T02:44:39;101665.72;;;15.92;100.00
18985;BME280;9626;52.552;13.436;2023-06-24T02:47:09;101661.53;;;15.81;100.00
18985;BME280;9626;52.552;13.436;2023-06-24T02:49:37;101666.91;;;15.80;100.00
18985;BME280;9626;52.552;13.436;2023-06-24T02:52:05;101664.34;;;15.75;100.00
18985;BME280;9626;52.552;13.436;2023-06-24T02:54:32;101664.25;;;15.78;100.00
18985;BME280;9626;52.552;13.436;2023-06-24T02:56:59;101666.16;;;15.73;100.00
18985;BME280;9626;52.552;13.436;2023-06-24T02:59:25;101673.44;;;15.66;100.00
18985;BME280;9626;52.552;13.436;2023-06-24T03:01:52;101678.91;;;15.62;100.00
18985;BME280;9626;52.552;13.436;2023-06-24T03:04:20;101678.22;;;15.53;100.00
18985;BME280;9626;52.552;13.436;2023-06-24T03:06:47;101689.00;;;15.50;100.00
18985;BME280;9626;52.552;13.436;2023-06-24T03:09:16;101675.75;;;15.46;100.00
18985;BME280;9626;52.552;13.436;2023-06-24T03:11:43;101682.88;;;15.45;100.00
18985;BME280;9626;52.552;13.436;2023-06-24T03:14:10;101680.34;;;15.41;100.00
18985;BME280;9626;52.552;13.436;2023-06-24T03:16:37;101687.38;;;15.43;100.00
18985;BME280;9626;52.552;13.436;2023-06-24T03:19:04;101686.50;;;15.43;100.00
18985;BME280;9626;52.552;13.436;2023-06-24T03:21:30;101688.34;;;15.41;100.00
18985;BME280;9626;52.552;13.436;2023-06-24T03:23:57;101693.63;;;15.42;100.00
18985;BME280;9626;52.552;13.436;2023-06-24T03:26:31;101692.88;;;15.37;100.00
18985;BME280;9626;52.552;13.436;2023-06-24T03:28:59;101699.19;;;15.33;100.00
18985;BME280;9626;52.552;13.436;2023-06-24T03:31:25;101695.56;;;15.35;100.00
18985;BME280;9626;52.552;13.436;2023-06-24T03:33:51;101699.88;;;15.41;100.00
18985;BME280;9626;52.552;13.436;2023-06-24T03:36:17;101707.28;;;15.30;100.00
18985;BME280;9626;52.552;13.436;2023-06-24T03:38:43;101700.94;;;15.34;100.00
18985;BME280;9626;52.552;13.436;2023-06-24T03:41:09;101696.44;;;15.36;100.00
18985;BME280;9626;52.552;13.436;2023-06-24T03:43:35;101692.88;;;15.37;100.00
18985;BME280;9626;52.552;13.436;2023-06-24T03:46:01;101699.03;;;15.39;100.00
18985;BME280;9626;52.552;13.436;2023-06-24T03:48:28;101699.00;;;15.41;100.00
18985;BME280;9626;52.552;13.436;2023-06-24T03:50:54;101699.19;;;15.33;100.00
18985;BME280;9626;52.552;13.436;2023-06-24T03:53:20;101697.34;;;15.35;100.00
18985;BME280;9626;52.552;13.436;2023-06-24T03:55:46;101702.75;;;15.32;100.00
18985;BME280;9626;52.552;13.436;2023-06-24T03:58:12;101693.97;;;15.27;100.00
18985;BME280;9626;52.552;13.436;2023-06-24T04:00:39;101702.75;;;15.32;100.00
18985;BME280;9626;52.552;13.436;2023-06-24T04:03:06;101709.78;;;15.36;100.00
18985;BME280;9626;52.552;13.436;2023-06-24T04:05:33;101702.84;;;15.29;100.00
18985;BME280;9626;52.552;13.436;2023-06-24T04:08:00;101710.88;;;15.27;100.00
18985;BME280;9626;52.552;13.436;2023-06-24T04:10:26;101711.66;;;15.31;100.00
18985;BME280;9626;52.552;13.436;2023-06-24T04:12:52;101716.03;;;15.35;100.00
18985;BME280;9626;52.552;13.436;2023-06-24T04:15:18;101707.09;;;15.36;100.00
18985;BME280;9626;52.552;13.436;2023-06-24T04:17:44;101707.03;;;15.39;100.00
18985;BME280;9626;52.552;13.436;2023-06-24T04:20:10;101709.66;;;15.42;100.00
18985;BME280;9626;52.552;13.436;2023-06-24T04:22:37;101705.81;;;15.52;100.00
18985;BME280;9626;52.552;13.436;2023-06-24T04:25:05;101704.31;;;15.42;100.00
18985;BME280;9626;52.552;13.436;2023-06-24T04:27:32;101708.88;;;15.37;100.00
18985;BME280;9626;52.552;13.436;2023-06-24T04:30:02;101717.16;;;15.25;100.00
18985;BME280;9626;52.552;13.436;2023-06-24T04:32:29;101720.81;;;15.20;100.00
18985;BME280;9626;52.552;13.436;2023-06-24T04:34:55;101727.13;;;15.16;100.00
18985;BME280;9626;52.552;13.436;2023-06-24T04:37:21;101729.81;;;15.16;100.00
18985;BME280;9626;52.552;13.436;2023-06-24T04:39:55;101720.81;;;15.20;100.00
18985;BME280;9626;52.552;13.436;2023-06-24T04:42:22;101732.34;;;15.21;100.00
18985;BME280;9626;52.552;13.436;2023-06-24T04:44:49;101731.50;;;15.20;100.00
18985;BME280;9626;52.552;13.436;2023-06-24T04:47:18;101729.75;;;15.18;100.00
18985;BME280;9626;52.552;13.436;2023-06-24T04:49:44;101731.44;;;15.22;100.00
18985;BME280;9626;52.552;13.436;2023-06-24T04:52:11;101733.91;;;15.31;100.00
18985;BME280;9626;52.552;13.436;2023-06-24T04:54:37;101730.34;;;15.31;100.00
18985;BME280;9626;52.552;13.436;2023-06-24T04:57:08;101734.84;;;15.29;100.00
18985;BME280;9626;52.552;13.436;2023-06-24T04:59:34;101734.56;;;15.41;100.00
18985;BME280;9626;52.552;13.436;2023-06-24T05:02:00;101740.59;;;15.49;100.00
18985;BME280;9626;52.552;13.436;2023-06-24T05:04:26;101738.84;;;15.48;100.00
18985;BME280;9626;52.552;13.436;2023-06-24T05:06:53;101746.78;;;15.51;100.00
18985;BME280;9626;52.552;13.436;2023-06-24T05:09:19;101743.19;;;15.52;100.00
18985;BME280;9626;52.552;13.436;2023-06-24T05:11:45;101751.16;;;15.54;100.00
18985;BME280;9626;52.552;13.436;2023-06-24T05:14:11;101747.47;;;15.60;100.00
18985;BME280;9626;52.552;13.436;2023-06-24T05:16:55;101742.16;;;15.58;100.00
18985;BME280;9626;52.552;13.436;2023-06-24T05:19:21;101735.75;;;15.67;100.00
18985;BME280;9626;52.552;13.436;2023-06-24T05:22:06;101739.09;;;15.75;100.00
18985;BME280;9626;52.552;13.436;2023-06-24T05:24:32;101744.34;;;15.78;100.00
18985;BME280;9626;52.552;13.436;2023-06-24T05:27:16;101747.91;;;15.80;100.00
18985;BME280;9626;52.552;13.436;2023-06-24T05:30:02;101748.66;;;15.87;100.00
18985;BME280;9626;52.552;13.436;2023-06-24T05:32:28;101744.00;;;15.94;100.00
18985;BME280;9626;52.552;13.436;2023-06-24T05:35:12;101749.06;;;16.06;100.00
18985;BME280;9626;52.552;13.436;2023-06-24T05:37:56;101750.63;;;16.13;100.00
18985;BME280;9626;52.552;13.436;2023-06-24T05:40:41;101754.13;;;16.15;100.00
18985;BME280;9626;52.552;13.436;2023-06-24T05:43:13;101748.72;;;16.18;100.00
18985;BME280;9626;52.552;13.436;2023-06-24T05:45:40;101763.59;;;16.29;100.00
18985;BME280;9626;52.552;13.436;2023-06-24T05:48:24;101763.38;;;16.36;100.00
18985;BME280;9626;52.552;13.436;2023-06-24T05:51:08;101758.91;;;16.37;100.00
18985;BME280;9626;52.552;13.436;2023-06-24T05:53:53;101764.59;;;16.25;100.00
18985;BME280;9626;52.552;13.436;2023-06-24T05:56:20;101764.81;;;16.15;100.00
18985;BME280;9626;52.552;13.436;2023-06-24T05:59:04;101764.59;;;16.25;100.00
18985;BME280;9626;52.552;13.436;2023-06-24T06:01:49;101762.59;;;16.33;100.00
18985;BME280;9626;52.552;13.436;2023-06-24T06:04:15;101760.59;;;16.41;100.00
18985;BME280;9626;52.552;13.436;2023-06-24T06:06:59;101758.50;;;16.52;100.00
18985;BME280;9626;52.552;13.436;2023-06-24T06:09:44;101763.81;;;16.54;100.00
18985;BME280;9626;52.552;13.436;2023-06-24T06:12:28;101762.75;;;16.60;100.00
18985;BME280;9626;52.552;13.436;2023-06-24T06:15:13;101756.06;;;16.76;100.00
18985;BME280;9626;52.552;13.436;2023-06-24T06:17:57;101758.16;;;16.65;100.00
18985;BME280;9626;52.552;13.436;2023-06-24T06:20:41;101749.13;;;16.69;100.00
18985;BME280;9626;52.552;13.436;2023-06-24T06:23:25;101747.88;;;16.81;100.00
18985;BME280;9626;52.552;13.436;2023-06-24T06:26:11;101761.91;;;16.90;100.00
18985;BME280;9626;52.552;13.436;2023-06-24T06:28:55;101758.97;;;17.00;100.00
18985;BME280;9626;52.552;13.436;2023-06-24T06:31:39;101756.13;;;17.06;100.00
18985;BME280;9626;52.552;13.436;2023-06-24T06:34:05;101756.56;;;17.20;100.00
18985;BME280;9626;52.552;13.436;2023-06-24T06:36:38;101757.25;;;17.27;100.00
18985;BME280;9626;52.552;13.436;2023-06-24T06:39:04;101750.94;;;17.30;100.00
18985;BME280;9626;52.552;13.436;2023-06-24T06:41:49;101758.53;;;17.44;100.00
18985;BME280;9626;52.552;13.436;2023-06-24T06:44:15;101752.00;;;17.52;100.00
18985;BME280;9626;52.552;13.436;2023-06-24T06:46:41;101755.38;;;17.59;100.00
18985;BME280;9626;52.552;13.436;2023-06-24T06:49:11;101759.03;;;17.56;100.00
18985;BME280;9626;52.552;13.436;2023-06-24T06:51:55;101751.50;;;17.68;100.00
18985;BME280;9626;52.552;13.436;2023-06-24T06:54:40;101740.78;;;17.68;100.00
18985;BME280;9626;52.552;13.436;2023-06-24T06:57:06;101743.38;;;17.71;100.00
18985;BME280;9626;52.552;13.436;2023-06-24T06:59:32;101736.22;;;17.71;100.00
18985;BME280;9626;52.552;13.436;2023-06-24T07:01:58;101746.31;;;17.92;100.00
18985;BME280;9626;52.552;13.436;2023-06-24T07:04:24;101748.56;;;18.04;100.00
18985;BME280;9626;52.552;13.436;2023-06-24T07:06:51;101742.56;;;18.22;100.00
18985;BME280;9626;52.552;13.436;2023-06-24T07:09:18;101744.81;;;18.35;100.00
18985;BME280;9626;52.552;13.436;2023-06-24T07:11:44;101739.00;;;18.47;100.00
18985;BME280;9626;52.552;13.436;2023-06-24T07:14:10;101738.78;;;18.53;100.00
18985;BME280;9626;52.552;13.436;2023-06-24T07:16:36;101736.91;;;18.55;100.00
18985;BME280;9626;52.552;13.436;2023-06-24T07:19:02;101745.19;;;18.49;100.00
18985;BME280;9626;52.552;13.436;2023-06-24T07:21:32;101749.78;;;18.46;100.00
18985;BME280;9626;52.552;13.436;2023-06-24T07:24:16;101753.72;;;18.61;100.00
18985;BME280;9626;52.552;13.436;2023-06-24T07:27:01;101762.22;;;18.23;100.00
18985;BME280;9626;52.552;13.436;2023-06-24T07:29:28;101760.66;;;18.16;100.00
18985;BME280;9626;52.552;13.436;2023-06-24T07:31:54;101776.38;;;18.27;100.00
18985;BME280;9626;52.552;13.436;2023-06-24T07:34:20;101764.22;;;18.16;100.00
18985;BME280;9626;52.552;13.436;2023-06-24T07:36:46;101768.19;;;18.31;100.00
18985;BME280;9626;52.552;13.436;2023-06-24T07:39:12;101768.56;;;18.20;100.00
18985;BME280;9626;52.552;13.436;2023-06-24T07:41:56;101771.66;;;18.33;100.00
18985;BME280;9626;52.552;13.436;2023-06-24T07:44:22;101771.97;;;18.51;100.00
18985;BME280;9626;52.552;13.436;2023-06-24T07:46:48;101770.97;;;18.53;100.00
18985;BME280;9626;52.552;13.436;2023-06-24T07:49:17;101769.16;;;18.79;100.00
18985;BME280;9626;52.552;13.436;2023-06-24T07:52:02;101770.66;;;18.86;100.00
18985;BME280;9626;52.552;13.436;2023-06-24T07:54:43;101772.34;;;18.65;100.00
18985;BME280;9626;52.552;13.436;2023-06-24T07:57:27;101779.94;;;18.52;100.00
18985;BME280;9626;52.552;13.436;2023-06-24T08:00:12;101780.56;;;18.35;100.00
18985;BME280;9626;52.552;13.436;2023-06-24T08:02:57;101785.41;;;18.49;100.00
18985;BME280;9626;52.552;13.436;2023-06-24T08:05:23;101776.09;;;18.59;100.00
18985;BME280;9626;52.552;13.436;2023-06-24T08:08:08;101781.69;;;18.53;100.00
18985;BME280;9626;52.552;13.436;2023-06-24T08:10:34;101768.28;;;18.53;100.00
18985;BME280;9626;52.552;13.436;2023-06-24T08:13:19;101769.81;;;18.61;100.00
18985;BME280;9626;52.552;13.436;2023-06-24T08:16:03;101774.63;;;18.76;100.00
18985;BME280;9626;52.552;13.436;2023-06-24T08:18:29;101784.69;;;18.95;100.00
18985;BME280;9626;52.552;13.436;2023-06-24T08:21:14;101779.13;;;19.01;100.00
18985;BME280;9626;52.552;13.436;2023-06-24T08:23:40;101782.59;;;19.03;100.00
18985;BME280;9626;52.552;13.436;2023-06-24T08:26:07;101782.38;;;19.09;100.00
18985;BME280;9626;52.552;13.436;2023-06-24T08:28:48;101792.28;;;19.07;100.00
18985;BME280;9626;52.552;13.436;2023-06-24T08:31:14;101793.00;;;18.88;100.00
18985;BME280;9626;52.552;13.436;2023-06-24T08:33:44;101785.81;;;18.89;100.00
18985;BME280;9626;52.552;13.436;2023-06-24T08:36:11;101798.22;;;19.15;100.00
18985;BME280;9626;52.552;13.436;2023-06-24T08:38:37;101786.50;;;19.41;100.00
18985;BME280;9626;52.552;13.436;2023-06-24T08:41:03;101787.94;;;19.50;100.00
18985;BME280;9626;52.552;13.436;2023-06-24T08:43:29;101783.41;;;19.29;100.00
18985;BME280;9626;52.552;13.436;2023-06-24T08:45:56;101784.25;;;19.31;100.00
18985;BME280;9626;52.552;13.436;2023-06-24T08:48:22;101789.34;;;19.61;100.00
18985;BME280;9626;52.552;13.436;2023-06-24T08:50:56;101789.84;;;19.92;100.00
18985;BME280;9626;52.552;13.436;2023-06-24T08:53:43;101785.81;;;20.25;100.00
18985;BME280;9626;52.552;13.436;2023-06-24T08:56:27;101790.03;;;20.31;100.00
18985;BME280;9626;52.552;13.436;2023-06-24T08:58:56;101781.75;;;20.56;96.31
18985;BME280;9626;52.552;13.436;2023-06-24T09:01:22;101792.84;;;20.89;96.18
18985;BME280;9626;52.552;13.436;2023-06-24T09:03:48;101792.41;;;20.80;92.39
18985;BME280;9626;52.552;13.436;2023-06-24T09:06:14;101792.63;;;20.94;91.89
18985;BME280;9626;52.552;13.436;2023-06-24T09:08:40;101794.25;;;21.17;88.40
18985;BME280;9626;52.552;13.436;2023-06-24T09:11:08;101799.78;;;21.33;81.94
18985;BME280;9626;52.552;13.436;2023-06-24T09:13:34;101786.69;;;21.64;77.58
18985;BME280;9626;52.552;13.436;2023-06-24T09:16:14;101795.13;;;22.11;80.81
18985;BME280;9626;52.552;13.436;2023-06-24T09:18:40;101801.38;;;21.75;76.30
18985;BME280;9626;52.552;13.436;2023-06-24T09:21:07;101799.88;;;21.70;82.31
18985;BME280;9626;52.552;13.436;2023-06-24T09:23:37;101794.50;;;21.70;80.95
18985;BME280;9626;52.552;13.436;2023-06-24T09:26:03;101799.09;;;21.85;82.60
18985;BME280;9626;52.552;13.436;2023-06-24T09:28:48;101794.16;;;21.76;79.43
18985;BME280;9626;52.552;13.436;2023-06-24T09:31:17;101794.16;;;21.76;82.30
18985;BME280;9626;52.552;13.436;2023-06-24T09:34:02;101800.03;;;21.28;81.57
18985;BME280;9626;52.552;13.436;2023-06-24T09:36:28;101798.19;;;21.48;82.34
18985;BME280;9626;52.552;13.436;2023-06-24T09:38:54;101783.38;;;21.76;82.78
18985;BME280;9626;52.552;13.436;2023-06-24T09:41:41;101788.66;;;21.79;77.72
18985;BME280;9626;52.552;13.436;2023-06-24T09:44:10;101782.09;;;21.66;77.42
18985;BME280;9626;52.552;13.436;2023-06-24T09:46:56;101782.81;;;21.88;79.67
18985;BME280;9626;52.552;13.436;2023-06-24T09:49:23;101782.00;;;21.86;77.52
18985;BME280;9626;52.552;13.436;2023-06-24T09:52:08;101789.09;;;22.24;76.69
18985;BME280;9626;52.552;13.436;2023-06-24T09:54:34;101788.06;;;22.26;74.60
18985;BME280;9626;52.552;13.436;2023-06-24T09:57:02;101786.88;;;21.78;77.90
18985;BME280;9626;52.552;13.436;2023-06-24T09:59:48;101788.88;;;21.55;79.77
18985;BME280;9626;52.552;13.436;2023-06-24T10:02:33;101781.63;;;21.57;81.59
18985;BME280;9626;52.552;13.436;2023-06-24T10:05:00;101778.69;;;21.62;75.75
18985;BME280;9626;52.552;13.436;2023-06-24T10:07:45;101767.81;;;21.64;75.76
18985;BME280;9626;52.552;13.436;2023-06-24T10:10:12;101774.03;;;21.66;78.52
18985;BME280;9626;52.552;13.436;2023-06-24T10:12:38;101772.44;;;21.61;73.69
18985;BME280;9626;52.552;13.436;2023-06-24T10:15:05;101765.09;;;21.08;73.80
18985;BME280;9626;52.552;13.436;2023-06-24T10:17:31;101767.69;;;20.90;80.57
18985;BME280;9626;52.552;13.436;2023-06-24T10:19:57;101764.06;;;21.10;77.47
18985;BME280;9626;52.552;13.436;2023-06-24T10:22:23;101761.81;;;21.20;75.76
18985;BME280;9626;52.552;13.436;2023-06-24T10:24:52;101763.50;;;21.04;75.10
18985;BME280;9626;52.552;13.436;2023-06-24T10:27:20;101765.34;;;21.02;74.37
18985;BME280;9626;52.552;13.436;2023-06-24T10:29:51;101763.34;;;21.07;75.48
18985;BME280;9626;52.552;13.436;2023-06-24T10:32:22;101757.38;;;21.19;79.01
18985;BME280;9626;52.552;13.436;2023-06-24T10:34:56;101756.09;;;21.45;85.47
18985;BME280;9626;52.552;13.436;2023-06-24T10:37:31;101753.41;;;21.65;79.19
18985;BME280;9626;52.552;13.436;2023-06-24T10:40:01;101744.06;;;21.72;81.11
18985;BME280;9626;52.552;13.436;2023-06-24T10:44:58;101752.09;;;21.73;78.40
18985;BME280;9626;52.552;13.436;2023-06-24T10:47:26;101740.25;;;21.76;73.84
18985;BME280;9626;52.552;13.436;2023-06-24T10:49:52;101750.38;;;21.53;74.13
18985;BME280;9626;52.552;13.436;2023-06-24T10:52:20;101734.72;;;21.61;74.91
18985;BME280;9626;52.552;13.436;2023-06-24T10:54:49;101744.69;;;21.59;78.22
18985;BME280;9626;52.552;13.436;2023-06-24T10:57:20;101741.16;;;21.76;79.38
18985;BME280;9626;52.552;13.436;2023-06-24T10:59:48;101739.47;;;21.74;80.07
18985;BME280;9626;52.552;13.436;2023-06-24T11:02:16;101745.72;;;21.57;77.43
18985;BME280;9626;52.552;13.436;2023-06-24T11:07:10;101736.91;;;21.53;80.35
18985;BME280;9626;52.552;13.436;2023-06-24T11:09:37;101731.72;;;21.85;81.45
18985;BME280;9626;52.552;13.436;2023-06-24T11:12:03;101731.72;;;22.03;78.53
18985;BME280;9626;52.552;13.436;2023-06-24T11:14:48;101733.78;;;21.98;76.09
18985;BME280;9626;52.552;13.436;2023-06-24T11:17:14;101742.84;;;21.97;80.32
18985;BME280;9626;52.552;13.436;2023-06-24T11:19:40;101736.91;;;21.90;76.59
18985;BME280;9626;52.552;13.436;2023-06-24T11:22:07;101737.19;;;21.84;76.02
18985;BME280;9626;52.552;13.436;2023-06-24T11:24:34;101733.16;;;21.92;78.88
18985;BME280;9626;52.552;13.436;2023-06-24T11:27:01;101730.53;;;22.08;78.33
18985;BME280;9626;52.552;13.436;2023-06-24T11:29:32;101743.06;;;22.09;77.33
18985;BME280;9626;52.552;13.436;2023-06-24T11:32:02;101733.88;;;22.14;77.35
18985;BME280;9626;52.552;13.436;2023-06-24T11:34:29;101728.56;;;22.12;74.66
18985;BME280;9626;52.552;13.436;2023-06-24T11:36:55;101731.19;;;22.14;76.37
18985;BME280;9626;52.552;13.436;2023-06-24T11:39:25;101730.78;;;22.21;75.53
18985;BME280;9626;52.552;13.436;2023-06-24T11:41:52;101733.94;;;22.29;73.04
18985;BME280;9626;52.552;13.436;2023-06-24T11:44:20;101728.09;;;22.21;68.72
18985;BME280;9626;52.552;13.436;2023-06-24T11:46:47;101715.94;;;22.12;72.80
18985;BME280;9626;52.552;13.436;2023-06-24T11:49:13;101723.84;;;22.33;74.21
18985;BME280;9626;52.552;13.436;2023-06-24T11:51:49;101716.75;;;22.50;67.94
18985;BME280;9626;52.552;13.436;2023-06-24T11:54:21;101714.03;;;22.50;67.75
18985;BME280;9626;52.552;13.436;2023-06-24T11:56:51;101718.56;;;22.49;67.04
18985;BME280;9626;52.552;13.436;2023-06-24T11:59:22;101715.44;;;22.57;66.24
18985;BME280;9626;52.552;13.436;2023-06-24T12:01:53;101722.75;;;22.55;66.61
18985;BME280;9626;52.552;13.436;2023-06-24T12:04:20;101725.88;;;22.47;64.27
18985;BME280;9626;52.552;13.436;2023-06-24T12:06:47;101717.78;;;22.47;68.49
18985;BME280;9626;52.552;13.436;2023-06-24T12:09:13;101712.97;;;22.52;67.16
18985;BME280;9626;52.552;13.436;2023-06-24T12:11:39;101713.69;;;22.56;64.01
18985;BME280;9626;52.552;13.436;2023-06-24T12:14:05;101714.06;;;22.66;61.73
18985;BME280;9626;52.552;13.436;2023-06-24T12:16:32;101711.56;;;22.94;59.93
18985;BME280;9626;52.552;13.436;2023-06-24T12:18:58;101704.53;;;22.92;61.20
18985;BME280;9626;52.552;13.436;2023-06-24T12:21:24;101719.84;;;22.91;62.13
18985;BME280;9626;52.552;13.436;2023-06-24T12:23:50;101714.63;;;22.88;66.32
18985;BME280;9626;52.552;13.436;2023-06-24T12:26:16;101716.38;;;23.05;58.84
18985;BME280;9626;52.552;13.436;2023-06-24T12:28:43;101713.09;;;23.00;57.01
18985;BME280;9626;52.552;13.436;2023-06-24T12:31:09;101716.22;;;22.92;57.80
18985;BME280;9626;52.552;13.436;2023-06-24T12:33:35;101711.00;;;22.89;59.02
18985;BME280;9626;52.552;13.436;2023-06-24T12:36:01;101712.88;;;22.87;60.83
18985;BME280;9626;52.552;13.436;2023-06-24T12:38:27;101709.63;;;23.14;60.48
18985;BME280;9626;52.552;13.436;2023-06-24T12:40:53;101702.16;;;23.19;57.36
18985;BME280;9626;52.552;13.436;2023-06-24T12:43:19;101703.44;;;23.28;59.27
18985;BME280;9626;52.552;13.436;2023-06-24T12:45:45;101702.16;;;23.19;58.05
18985;BME280;9626;52.552;13.436;2023-06-24T12:48:13;101705.03;;;22.99;59.51
18985;BME280;9626;52.552;13.436;2023-06-24T12:50:39;101706.47;;;23.06;61.12
18985;BME280;9626;52.552;13.436;2023-06-24T12:53:05;101706.72;;;23.01;62.72
18985;BME280;9626;52.552;13.436;2023-06-24T12:55:31;101705.53;;;23.23;59.42
18985;BME280;9626;52.552;13.436;2023-06-24T12:57:57;101700.22;;;23.37;59.22
18985;BME280;9626;52.552;13.436;2023-06-24T13:00:24;101696.91;;;23.48;57.56
18985;BME280;9626;52.552;13.436;2023-06-24T13:02:50;101696.00;;;23.48;58.80
18985;BME280;9626;52.552;13.436;2023-06-24T13:05:17;101699.59;;;23.48;61.54
18985;BME280;9626;52.552;13.436;2023-06-24T13:07:43;101702.44;;;23.45;62.98
18985;BME280;9626;52.552;13.436;2023-06-24T13:10:10;101699.75;;;23.45;60.93
18985;BME280;9626;52.552;13.436;2023-06-24T13:12:37;101704.66;;;23.38;61.72
18985;BME280;9626;52.552;13.436;2023-06-24T13:15:05;101704.56;;;23.24;62.87
18985;BME280;9626;52.552;13.436;2023-06-24T13:17:31;101711.53;;;23.44;59.36
18985;BME280;9626;52.552;13.436;2023-06-24T13:19:58;101694.19;;;23.48;58.51